sensor_id;sensor_type;location;lat;lon;timestamp;pressure;altitude;pressure_sealevel;temperature;humidity
4745;BME280;2386;42.138;24.746;2023-07-31T00:00:06;98969.88;;;26.84;45.23
4745;BME280;2386;42.138;24.746;2023-07-31T00:02:34;98963.84;;;26.82;45.46
4745;BME280;2386;42.138;24.746;2023-07-31T00:05:00;98973.25;;;26.77;45.75
4745;BME280;2386;42.138;24.746;2023-07-31T00:07:25;98966.44;;;26.75;45.75
4745;BME280;2386;42.138;24.746;2023-07-31T00:09:51;98974.44;;;26.76;45.97
4745;BME280;2386;42.138;24.746;2023-07-31T00:12:16;98976.13;;;26.65;46.35
4745;BME280;2386;42.138;24.746;2023-07-31T00:14:42;98971.72;;;26.64;46.18
4745;BME280;2386;42.138;24.746;2023-07-31T00:17:07;98967.25;;;26.75;46.10
4745;BME280;2386;42.138;24.746;2023-07-31T00:19:32;98978.47;;;26.79;45.46
4745;BME280;2386;42.138;24.746;2023-07-31T00:21:58;98977.38;;;26.68;46.55
4745;BME280;2386;42.138;24.746;2023-07-31T00:24:23;98985.28;;;26.66;46.36
4745;BME280;2386;42.138;24.746;2023-07-31T00:26:48;98985.28;;;26.66;46.42
4745;BME280;2386;42.138;24.746;2023-07-31T00:29:14;98989.13;;;26.61;46.75
4745;BME280;2386;42.138;24.746;2023-07-31T00:31:39;98979.75;;;26.54;46.81
4745;BME280;2386;42.138;24.746;2023-07-31T00:34:04;98980.22;;;26.56;46.57
4745;BME280;2386;42.138;24.746;2023-07-31T00:36:30;98990.13;;;26.69;46.30
4745;BME280;2386;42.138;24.746;2023-07-31T00:38:55;98978.91;;;26.65;46.52
4745;BME280;2386;42.138;24.746;2023-07-31T00:41:21;98993.41;;;26.59;46.62
4745;BME280;2386;42.138;24.746;2023-07-31T00:43:46;98982.44;;;26.50;47.14
4745;BME280;2386;42.138;24.746;2023-07-31T00:46:11;98981.88;;;26.32;47.50
4745;BME280;2386;42.138;24.746;2023-07-31T00:48:37;98980.81;;;26.49;47.15
4745;BME280;2386;42.138;24.746;2023-07-31T00:51:03;98978.47;;;26.51;46.71
4745;BME280;2386;42.138;24.746;2023-07-31T00:53:28;98985.19;;;26.62;46.88
4745;BME280;2386;42.138;24.746;2023-07-31T00:55:54;98982.19;;;26.55;46.92
4745;BME280;2386;42.138;24.746;2023-07-31T00:58:19;99003.50;;;26.63;46.95
4745;BME280;2386;42.138;24.746;2023-07-31T01:00:45;98981.59;;;26.62;46.84
4745;BME280;2386;42.138;24.746;2023-07-31T01:03:11;98985.19;;;26.62;46.67
4745;BME280;2386;42.138;24.746;2023-07-31T01:05:45;98995.41;;;26.46;47.25
4745;BME280;2386;42.138;24.746;2023-07-31T01:11:07;99000.66;;;26.23;47.86
4745;BME280;2386;42.138;24.746;2023-07-31T01:13:36;99004.47;;;26.18;48.00
4745;BME280;2386;42.138;24.746;2023-07-31T01:16:01;98993.56;;;26.26;48.17
4745;BME280;2386;42.138;24.746;2023-07-31T01:18:27;99001.44;;;26.24;48.28
4745;BME280;2386;42.138;24.746;2023-07-31T01:20:59;98994.38;;;26.26;48.12
4745;BME280;2386;42.138;24.746;2023-07-31T01:26:18;98988.47;;;26.40;48.18
4745;BME280;2386;42.138;24.746;2023-07-31T01:31:20;98996.38;;;26.38;48.34
4745;BME280;2386;42.138;24.746;2023-07-31T01:33:46;99004.47;;;26.43;47.78
4745;BME280;2386;42.138;24.746;2023-07-31T01:36:12;99001.34;;;26.44;48.24
4745;BME280;2386;42.138;24.746;2023-07-31T01:38:37;99000.75;;;26.39;48.65
4745;BME280;2386;42.138;24.746;2023-07-31T01:41:03;98994.03;;;26.40;48.41
4745;BME280;2386;42.138;24.746;2023-07-31T01:43:28;98998.44;;;26.41;48.37
4745;BME280;2386;42.138;24.746;2023-07-31T01:45:53;98988.81;;;26.38;48.12
4745;BME280;2386;42.138;24.746;2023-07-31T01:48:19;98993.34;;;26.31;48.83
4745;BME280;2386;42.138;24.746;2023-07-31T01:50:44;98985.47;;;26.33;48.58
4745;BME280;2386;42.138;24.746;2023-07-31T01:53:09;98991.72;;;26.30;49.07
4745;BME280;2386;42.138;24.746;2023-07-31T01:55:37;98988.00;;;26.26;48.90
4745;BME280;2386;42.138;24.746;2023-07-31T01:58:02;98985.22;;;26.26;48.50
4745;BME280;2386;42.138;24.746;2023-07-31T02:00:28;98988.81;;;26.26;49.02
4745;BME280;2386;42.138;24.746;2023-07-31T02:02:53;98984.19;;;26.30;48.36
4745;BME280;2386;42.138;24.746;2023-07-31T02:05:18;98987.44;;;26.20;48.67
4745;BME280;2386;42.138;24.746;2023-07-31T02:07:44;98993.34;;;26.18;47.97
4745;BME280;2386;42.138;24.746;2023-07-31T02:10:09;98999.38;;;26.20;48.29
4745;BME280;2386;42.138;24.746;2023-07-31T02:12:34;98993.69;;;26.17;48.04
4745;BME280;2386;42.138;24.746;2023-07-31T02:15:00;98997.28;;;26.17;47.96
4745;BME280;2386;42.138;24.746;2023-07-31T02:17:25;98990.91;;;26.17;48.14
4745;BME280;2386;42.138;24.746;2023-07-31T02:20:16;98986.06;;;26.14;47.87
4745;BME280;2386;42.138;24.746;2023-07-31T02:22:42;98988.47;;;26.28;48.12
4745;BME280;2386;42.138;24.746;2023-07-31T02:25:08;98989.75;;;26.30;48.06
4745;BME280;2386;42.138;24.746;2023-07-31T02:27:33;98982.91;;;26.40;48.59
4745;BME280;2386;42.138;24.746;2023-07-31T02:29:58;98973.31;;;26.37;49.40
4745;BME280;2386;42.138;24.746;2023-07-31T02:32:24;98978.50;;;26.39;49.35
4745;BME280;2386;42.138;24.746;2023-07-31T02:38:08;98974.94;;;26.38;52.69
4745;BME280;2386;42.138;24.746;2023-07-31T02:40:33;98962.53;;;26.36;53.55
4745;BME280;2386;42.138;24.746;2023-07-31T02:42:59;98970.88;;;26.36;55.98
4745;BME280;2386;42.138;24.746;2023-07-31T02:45:24;98966.22;;;26.28;57.34
4745;BME280;2386;42.138;24.746;2023-07-31T02:47:49;98966.00;;;26.33;58.24
4745;BME280;2386;42.138;24.746;2023-07-31T02:50:15;98961.13;;;26.30;60.21
4745;BME280;2386;42.138;24.746;2023-07-31T02:52:40;98954.63;;;26.26;60.99
4745;BME280;2386;42.138;24.746;2023-07-31T02:55:06;98967.75;;;26.37;61.75
4745;BME280;2386;42.138;24.746;2023-07-31T02:57:31;98962.88;;;26.22;64.05
4745;BME280;2386;42.138;24.746;2023-07-31T02:59:57;98956.50;;;26.34;63.88
4745;BME280;2386;42.138;24.746;2023-07-31T03:02:22;98956.03;;;26.32;64.68
4745;BME280;2386;42.138;24.746;2023-07-31T03:04:48;98953.94;;;26.29;65.88
4745;BME280;2386;42.138;24.746;2023-07-31T03:07:13;98946.44;;;26.17;66.74
4745;BME280;2386;42.138;24.746;2023-07-31T03:09:38;98946.53;;;26.20;66.46
4745;BME280;2386;42.138;24.746;2023-07-31T03:12:04;98953.72;;;26.22;67.57
4745;BME280;2386;42.138;24.746;2023-07-31T03:14:29;98958.13;;;26.10;69.65
4745;BME280;2386;42.138;24.746;2023-07-31T03:16:55;98966.25;;;26.15;70.29
4745;BME280;2386;42.138;24.746;2023-07-31T03:19:20;98966.47;;;26.10;74.98
4745;BME280;2386;42.138;24.746;2023-07-31T03:21:46;98971.41;;;25.77;85.06
4745;BME280;2386;42.138;24.746;2023-07-31T03:24:11;98979.84;;;25.11;95.80
4745;BME280;2386;42.138;24.746;2023-07-31T03:26:37;98975.66;;;24.51;100.00
4745;BME280;2386;42.138;24.746;2023-07-31T03:29:03;98989.88;;;24.29;100.00
4745;BME280;2386;42.138;24.746;2023-07-31T03:31:28;98976.75;;;23.79;100.00
4745;BME280;2386;42.138;24.746;2023-07-31T03:33:54;98987.13;;;23.61;100.00
4745;BME280;2386;42.138;24.746;2023-07-31T03:36:48;98991.38;;;23.50;100.00
4745;BME280;2386;42.138;24.746;2023-07-31T03:39:14;99003.00;;;23.35;100.00
4745;BME280;2386;42.138;24.746;2023-07-31T03:41:39;98998.78;;;23.20;100.00
4745;BME280;2386;42.138;24.746;2023-07-31T03:44:04;99004.63;;;23.27;100.00
4745;BME280;2386;42.138;24.746;2023-07-31T03:46:30;99007.75;;;23.17;100.00
4745;BME280;2386;42.138;24.746;2023-07-31T03:49:18;99026.97;;;23.22;100.00
4745;BME280;2386;42.138;24.746;2023-07-31T03:51:46;99033.63;;;23.21;100.00
4745;BME280;2386;42.138;24.746;2023-07-31T03:54:12;99035.03;;;23.44;100.00
4745;BME280;2386;42.138;24.746;2023-07-31T03:56:38;99037.31;;;23.42;100.00
4745;BME280;2386;42.138;24.746;2023-07-31T03:59:04;99043.38;;;23.27;100.00
4745;BME280;2386;42.138;24.746;2023-07-31T04:01:29;99036.41;;;23.21;100.00
4745;BME280;2386;42.138;24.746;2023-07-31T04:03:55;99041.94;;;23.12;100.00
4745;BME280;2386;42.138;24.746;2023-07-31T04:06:20;99052.03;;;23.08;100.00
4745;BME280;2386;42.138;24.746;2023-07-31T04:08:45;99045.91;;;22.94;100.00
4745;BME280;2386;42.138;24.746;2023-07-31T04:11:11;99048.19;;;22.83;100.00
4745;BME280;2386;42.138;24.746;2023-07-31T04:13:37;99047.31;;;22.66;100.00
4745;BME280;2386;42.138;24.746;2023-07-31T04:16:03;99040.97;;;22.74;100.00
4745;BME280;2386;42.138;24.746;2023-07-31T04:18:28;99048.63;;;22.68;100.00
4745;BME280;2386;42.138;24.746;2023-07-31T04:20:56;99055.94;;;22.73;100.00
4745;BME280;2386;42.138;24.746;2023-07-31T04:23:21;99057.91;;;22.72;100.00
4745;BME280;2386;42.138;24.746;2023-07-31T04:25:47;99059.03;;;22.71;100.00
4745;BME280;2386;42.138;24.746;2023-07-31T04:28:12;99064.41;;;22.76;100.00
4745;BME280;2386;42.138;24.746;2023-07-31T04:30:38;99065.25;;;22.85;100.00
4745;BME280;2386;42.138;24.746;2023-07-31T04:33:04;99062.97;;;22.87;100.00
4745;BME280;2386;42.138;24.746;2023-07-31T04:35:29;99054.34;;;22.80;100.00
4745;BME280;2386;42.138;24.746;2023-07-31T04:37:54;99055.13;;;22.72;100.00
4745;BME280;2386;42.138;24.746;2023-07-31T04:40:20;99064.28;;;22.81;100.00
4745;BME280;2386;42.138;24.746;2023-07-31T04:42:46;99059.56;;;22.82;100.00
4745;BME280;2386;42.138;24.746;2023-07-31T04:45:11;99064.09;;;22.69;100.00
4745;BME280;2386;42.138;24.746;2023-07-31T04:47:37;99061.16;;;22.66;100.00
4745;BME280;2386;42.138;24.746;2023-07-31T04:50:02;99058.41;;;22.74;100.00
4745;BME280;2386;42.138;24.746;2023-07-31T04:52:27;99059.06;;;22.88;100.00
4745;BME280;2386;42.138;24.746;2023-07-31T04:54:53;99062.16;;;22.87;100.00
4745;BME280;2386;42.138;24.746;2023-07-31T04:57:18;99053.88;;;22.96;100.00
4745;BME280;2386;42.138;24.746;2023-07-31T04:59:44;99067.06;;;22.99;100.00
4745;BME280;2386;42.138;24.746;2023-07-31T05:02:12;99064.56;;;23.06;100.00
4745;BME280;2386;42.138;24.746;2023-07-31T05:04:38;99055.47;;;23.14;100.00
4745;BME280;2386;42.138;24.746;2023-07-31T05:07:04;99050.56;;;23.28;100.00
4745;BME280;2386;42.138;24.746;2023-07-31T05:09:30;99059.97;;;23.44;100.00
4745;BME280;2386;42.138;24.746;2023-07-31T05:11:56;99053.75;;;23.47;100.00
4745;BME280;2386;42.138;24.746;2023-07-31T05:14:22;99065.59;;;23.74;100.00
4745;BME280;2386;42.138;24.746;2023-07-31T05:16:48;99054.22;;;23.67;100.00
4745;BME280;2386;42.138;24.746;2023-07-31T05:19:14;99048.38;;;23.59;100.00
4745;BME280;2386;42.138;24.746;2023-07-31T05:21:39;99055.69;;;23.73;100.00
4745;BME280;2386;42.138;24.746;2023-07-31T05:24:05;99054.19;;;23.75;100.00
4745;BME280;2386;42.138;24.746;2023-07-31T05:26:33;99058.88;;;23.83;100.00
4745;BME280;2386;42.138;24.746;2023-07-31T05:28:58;99064.22;;;23.88;100.00
4745;BME280;2386;42.138;24.746;2023-07-31T05:31:24;99060.00;;;23.82;100.00
4745;BME280;2386;42.138;24.746;2023-07-31T05:33:50;99064.81;;;24.03;100.00
4745;BME280;2386;42.138;24.746;2023-07-31T05:36:16;99065.31;;;23.96;100.00
4745;BME280;2386;42.138;24.746;2023-07-31T05:38:41;99068.53;;;24.07;100.00
4745;BME280;2386;42.138;24.746;2023-07-31T05:41:09;99075.66;;;24.16;100.00
4745;BME280;2386;42.138;24.746;2023-07-31T05:43:35;99066.69;;;24.19;100.00
4745;BME280;2386;42.138;24.746;2023-07-31T05:46:00;99082.78;;;24.35;100.00
4745;BME280;2386;42.138;24.746;2023-07-31T05:48:26;99077.03;;;24.40;100.00
4745;BME280;2386;42.138;24.746;2023-07-31T05:50:52;99056.97;;;24.43;100.00
4745;BME280;2386;42.138;24.746;2023-07-31T05:53:17;99071.31;;;24.45;100.00
4745;BME280;2386;42.138;24.746;2023-07-31T05:55:43;99085.91;;;24.75;100.00
4745;BME280;2386;42.138;24.746;2023-07-31T05:58:08;99075.34;;;24.68;100.00
4745;BME280;2386;42.138;24.746;2023-07-31T06:00:34;99077.66;;;24.87;100.00
4745;BME280;2386;42.138;24.746;2023-07-31T06:02:59;99082.28;;;25.04;100.00
4745;BME280;2386;42.138;24.746;2023-07-31T06:05:24;99082.44;;;25.07;100.00
4745;BME280;2386;42.138;24.746;2023-07-31T06:08:06;99065.56;;;25.12;100.00
4745;BME280;2386;42.138;24.746;2023-07-31T06:10:32;99078.56;;;25.33;100.00
4745;BME280;2386;42.138;24.746;2023-07-31T06:12:57;99073.78;;;25.54;100.00
4745;BME280;2386;42.138;24.746;2023-07-31T06:15:22;99070.66;;;25.55;99.11
4745;BME280;2386;42.138;24.746;2023-07-31T06:17:48;99075.13;;;25.69;100.00
4745;BME280;2386;42.138;24.746;2023-07-31T06:20:13;99076.28;;;25.80;96.75
4745;BME280;2386;42.138;24.746;2023-07-31T06:22:39;99086.69;;;25.71;90.51
4745;BME280;2386;42.138;24.746;2023-07-31T06:25:04;99074.56;;;25.75;93.04
4745;BME280;2386;42.138;24.746;2023-07-31T06:27:30;99086.00;;;25.74;91.76
4745;BME280;2386;42.138;24.746;2023-07-31T06:29:56;99082.53;;;25.77;91.42
4745;BME280;2386;42.138;24.746;2023-07-31T06:32:21;99075.38;;;25.88;91.78
4745;BME280;2386;42.138;24.746;2023-07-31T06:34:47;99072.59;;;25.88;90.51
4745;BME280;2386;42.138;24.746;2023-07-31T06:37:13;99078.63;;;25.90;90.09
4745;BME280;2386;42.138;24.746;2023-07-31T06:39:38;99078.97;;;25.89;90.28
4745;BME280;2386;42.138;24.746;2023-07-31T06:42:03;99079.53;;;25.82;90.55
4745;BME280;2386;42.138;24.746;2023-07-31T06:44:29;99073.75;;;25.75;89.15
4745;BME280;2386;42.138;24.746;2023-07-31T06:46:54;99071.69;;;25.84;89.71
4745;BME280;2386;42.138;24.746;2023-07-31T06:49:20;99084.91;;;25.99;90.51
4745;BME280;2386;42.138;24.746;2023-07-31T06:51:45;99072.59;;;26.12;89.07
4745;BME280;2386;42.138;24.746;2023-07-31T06:54:11;99073.06;;;26.27;88.18
4745;BME280;2386;42.138;24.746;2023-07-31T06:56:36;99071.56;;;26.41;86.56
4745;BME280;2386;42.138;24.746;2023-07-31T06:59:03;99072.59;;;26.61;86.90
4745;BME280;2386;42.138;24.746;2023-07-31T07:01:28;99070.94;;;26.72;85.66
4745;BME280;2386;42.138;24.746;2023-07-31T07:03:54;99064.97;;;26.86;84.07
4745;BME280;2386;42.138;24.746;2023-07-31T07:06:19;99070.75;;;27.05;82.76
4745;BME280;2386;42.138;24.746;2023-07-31T07:08:45;99071.25;;;27.23;82.73
4745;BME280;2386;42.138;24.746;2023-07-31T07:11:11;99075.34;;;27.41;82.38
4745;BME280;2386;42.138;24.746;2023-07-31T07:13:37;99079.22;;;27.53;80.43
4745;BME280;2386;42.138;24.746;2023-07-31T07:16:02;99079.31;;;27.56;78.69
4745;BME280;2386;42.138;24.746;2023-07-31T07:18:27;99071.97;;;27.64;80.01
4745;BME280;2386;42.138;24.746;2023-07-31T07:20:54;99076.94;;;27.70;78.27
4745;BME280;2386;42.138;24.746;2023-07-31T07:23:19;99077.28;;;27.69;76.61
4745;BME280;2386;42.138;24.746;2023-07-31T07:25:46;99079.72;;;27.70;77.23
4745;BME280;2386;42.138;24.746;2023-07-31T07:28:12;99078.09;;;27.69;77.99
4745;BME280;2386;42.138;24.746;2023-07-31T07:30:38;99070.19;;;27.71;77.29
4745;BME280;2386;42.138;24.746;2023-07-31T07:33:04;99071.19;;;27.79;78.29
4745;BME280;2386;42.138;24.746;2023-07-31T07:35:30;99068.94;;;27.85;77.17
4745;BME280;2386;42.138;24.746;2023-07-31T07:37:55;99075.50;;;27.92;76.23
4745;BME280;2386;42.138;24.746;2023-07-31T07:40:21;99073.44;;;28.05;76.51
4745;BME280;2386;42.138;24.746;2023-07-31T07:42:47;99071.81;;;28.20;75.08
4745;BME280;2386;42.138;24.746;2023-07-31T07:45:12;99057.03;;;28.35;76.04
4745;BME280;2386;42.138;24.746;2023-07-31T07:47:40;99072.06;;;28.46;73.77
4745;BME280;2386;42.138;24.746;2023-07-31T07:50:06;99069.22;;;28.62;72.56
4745;BME280;2386;42.138;24.746;2023-07-31T07:52:31;99064.31;;;28.74;72.77
4745;BME280;2386;42.138;24.746;2023-07-31T07:54:57;99069.63;;;28.79;71.97
4745;BME280;2386;42.138;24.746;2023-07-31T07:57:22;99072.84;;;28.82;70.82
4745;BME280;2386;42.138;24.746;2023-07-31T07:59:48;99073.00;;;28.69;70.51
4745;BME280;2386;42.138;24.746;2023-07-31T08:02:13;99070.47;;;28.64;70.32
4745;BME280;2386;42.138;24.746;2023-07-31T08:04:38;99069.66;;;28.64;70.74
4745;BME280;2386;42.138;24.746;2023-07-31T08:07:04;99071.22;;;28.61;70.14
4745;BME280;2386;42.138;24.746;2023-07-31T08:09:29;99071.50;;;28.56;69.87
4745;BME280;2386;42.138;24.746;2023-07-31T08:11:54;99066.19;;;28.51;68.47
4745;BME280;2386;42.138;24.746;2023-07-31T08:14:22;99054.28;;;28.54;70.42
4745;BME280;2386;42.138;24.746;2023-07-31T08:16:47;99062.38;;;28.59;70.17
4745;BME280;2386;42.138;24.746;2023-07-31T08:19:13;99062.63;;;28.70;69.23
4745;BME280;2386;42.138;24.746;2023-07-31T08:21:38;99061.63;;;28.78;68.03
4745;BME280;2386;42.138;24.746;2023-07-31T08:24:03;99046.88;;;28.97;66.96
4745;BME280;2386;42.138;24.746;2023-07-31T08:26:29;99045.47;;;29.06;65.88
4745;BME280;2386;42.138;24.746;2023-07-31T08:28:54;99044.13;;;29.20;65.76
4745;BME280;2386;42.138;24.746;2023-07-31T08:31:19;99046.84;;;29.16;66.11
4745;BME280;2386;42.138;24.746;2023-07-31T08:33:45;99047.75;;;29.01;65.04
4745;BME280;2386;42.138;24.746;2023-07-31T08:36:10;99049.19;;;28.75;66.71
4745;BME280;2386;42.138;24.746;2023-07-31T08:38:36;99052.28;;;28.70;65.76
4745;BME280;2386;42.138;24.746;2023-07-31T08:41:03;99051.66;;;28.61;66.07
4745;BME280;2386;42.138;24.746;2023-07-31T08:43:30;99049.75;;;28.65;65.48
4745;BME280;2386;42.138;24.746;2023-07-31T08:45:56;99049.75;;;28.65;64.99
4745;BME280;2386;42.138;24.746;2023-07-31T08:48:22;99061.09;;;28.72;63.95
4745;BME280;2386;42.138;24.746;2023-07-31T08:50:48;99044.41;;;28.76;63.83
4745;BME280;2386;42.138;24.746;2023-07-31T08:53:13;99044.50;;;28.99;62.72
4745;BME280;2386;42.138;24.746;2023-07-31T08:55:40;99046.28;;;29.07;61.59
4745;BME280;2386;42.138;24.746;2023-07-31T08:58:05;99043.47;;;29.26;63.32
4745;BME280;2386;42.138;24.746;2023-07-31T09:00:34;99043.75;;;29.40;60.88
4745;BME280;2386;42.138;24.746;2023-07-31T09:03:08;99045.22;;;29.34;59.98
4745;BME280;2386;42.138;24.746;2023-07-31T09:05:36;99048.75;;;29.31;59.83
4745;BME280;2386;42.138;24.746;2023-07-31T09:08:02;99049.50;;;29.28;60.48
4745;BME280;2386;42.138;24.746;2023-07-31T09:10:29;99047.44;;;29.25;58.50
4745;BME280;2386;42.138;24.746;2023-07-31T09:12:55;99046.63;;;29.25;58.85
4745;BME280;2386;42.138;24.746;2023-07-31T09:15:21;99042.72;;;29.29;57.71
4745;BME280;2386;42.138;24.746;2023-07-31T09:17:47;99050.31;;;29.48;56.93
4745;BME280;2386;42.138;24.746;2023-07-31T09:20:20;99044.19;;;29.62;56.55
4745;BME280;2386;42.138;24.746;2023-07-31T09:22:46;99038.06;;;29.79;56.70
4745;BME280;2386;42.138;24.746;2023-07-31T09:25:20;99032.59;;;29.86;55.23
4745;BME280;2386;42.138;24.746;2023-07-31T09:27:58;99030.31;;;29.69;55.71
4745;BME280;2386;42.138;24.746;2023-07-31T09:30:24;99034.91;;;29.58;53.95
4745;BME280;2386;42.138;24.746;2023-07-31T09:32:51;99025.84;;;29.64;54.95
4745;BME280;2386;42.138;24.746;2023-07-31T09:35:27;99027.13;;;29.48;52.46
4745;BME280;2386;42.138;24.746;2023-07-31T09:37:53;99028.47;;;29.34;54.30
4745;BME280;2386;42.138;24.746;2023-07-31T09:40:30;99029.78;;;29.40;54.18
4745;BME280;2386;42.138;24.746;2023-07-31T09:42:58;99023.75;;;29.38;53.15
4745;BME280;2386;42.138;24.746;2023-07-31T09:45:24;99019.94;;;29.47;54.11
4745;BME280;2386;42.138;24.746;2023-07-31T09:47:50;99010.19;;;29.60;54.03
4745;BME280;2386;42.138;24.746;2023-07-31T09:50:15;99014.56;;;29.84;53.12
4745;BME280;2386;42.138;24.746;2023-07-31T09:52:43;99014.25;;;29.89;51.37
4745;BME280;2386;42.138;24.746;2023-07-31T09:55:09;99020.91;;;30.03;50.27
4745;BME280;2386;42.138;24.746;2023-07-31T09:57:40;99013.63;;;30.22;49.76
4745;BME280;2386;42.138;24.746;2023-07-31T10:00:07;99011.88;;;30.40;48.81
4745;BME280;2386;42.138;24.746;2023-07-31T10:02:34;99013.75;;;30.59;48.67
4745;BME280;2386;42.138;24.746;2023-07-31T10:05:03;99014.44;;;30.52;48.42
4745;BME280;2386;42.138;24.746;2023-07-31T10:07:30;99017.81;;;30.35;49.74
4745;BME280;2386;42.138;24.746;2023-07-31T10:09:57;99011.19;;;29.97;50.54
4745;BME280;2386;42.138;24.746;2023-07-31T10:12:26;99009.53;;;29.93;50.76
4745;BME280;2386;42.138;24.746;2023-07-31T10:14:54;99012.09;;;30.01;50.01
4745;BME280;2386;42.138;24.746;2023-07-31T10:17:24;98992.13;;;30.03;50.01
4745;BME280;2386;42.138;24.746;2023-07-31T10:19:49;98990.63;;;30.09;50.20
4745;BME280;2386;42.138;24.746;2023-07-31T10:22:15;98989.19;;;30.19;50.23
4745;BME280;2386;42.138;24.746;2023-07-31T10:24:45;98968.50;;;30.27;49.03
4745;BME280;2386;42.138;24.746;2023-07-31T10:27:11;98983.16;;;30.47;49.81
4745;BME280;2386;42.138;24.746;2023-07-31T10:29:38;98982.56;;;30.60;51.01
4745;BME280;2386;42.138;24.746;2023-07-31T10:32:05;98977.25;;;30.82;50.24
4745;BME280;2386;42.138;24.746;2023-07-31T10:34:34;98969.91;;;31.03;48.74
4745;BME280;2386;42.138;24.746;2023-07-31T10:37:29;98979.16;;;31.08;46.16
4745;BME280;2386;42.138;24.746;2023-07-31T10:40:03;98970.50;;;31.23;47.52
4745;BME280;2386;42.138;24.746;2023-07-31T10:42:31;98966.31;;;31.44;48.62
4745;BME280;2386;42.138;24.746;2023-07-31T10:44:58;98959.91;;;31.43;45.86
4745;BME280;2386;42.138;24.746;2023-07-31T10:47:25;98956.03;;;31.58;45.38
4745;BME280;2386;42.138;24.746;2023-07-31T10:49:51;98957.78;;;31.70;44.86
4745;BME280;2386;42.138;24.746;2023-07-31T10:52:21;98959.06;;;31.83;45.08
4745;BME280;2386;42.138;24.746;2023-07-31T10:55:53;98944.34;;;32.00;43.42
4745;BME280;2386;42.138;24.746;2023-07-31T10:58:20;98953.25;;;32.13;41.42
4745;BME280;2386;42.138;24.746;2023-07-31T11:00:48;98954.44;;;32.12;41.08
4745;BME280;2386;42.138;24.746;2023-07-31T11:03:16;98944.03;;;32.16;41.19
4745;BME280;2386;42.138;24.746;2023-07-31T11:06:03;98948.84;;;32.16;41.28
4745;BME280;2386;42.138;24.746;2023-07-31T11:08:31;98950.88;;;32.19;41.34
4745;BME280;2386;42.138;24.746;2023-07-31T11:11:09;98940.03;;;32.17;41.81
4745;BME280;2386;42.138;24.746;2023-07-31T11:13:45;98938.59;;;32.41;41.95
4745;BME280;2386;42.138;24.746;2023-07-31T11:16:13;98945.13;;;32.74;43.09
4745;BME280;2386;42.138;24.746;2023-07-31T11:18:40;98966.91;;;32.94;41.34
4745;BME280;2386;42.138;24.746;2023-07-31T11:21:07;98955.63;;;32.80;45.04
4745;BME280;2386;42.138;24.746;2023-07-31T11:23:32;98960.75;;;32.60;46.99
4745;BME280;2386;42.138;24.746;2023-07-31T11:26:01;98963.06;;;32.37;47.68
4745;BME280;2386;42.138;24.746;2023-07-31T11:28:32;98965.66;;;32.12;49.11
4745;BME280;2386;42.138;24.746;2023-07-31T11:30:59;98962.31;;;31.89;49.65
4745;BME280;2386;42.138;24.746;2023-07-31T11:33:25;98956.88;;;31.62;50.21
4745;BME280;2386;42.138;24.746;2023-07-31T11:35:50;98953.63;;;31.57;52.08
4745;BME280;2386;42.138;24.746;2023-07-31T11:38:29;98956.88;;;31.62;51.82
4745;BME280;2386;42.138;24.746;2023-07-31T11:41:04;98956.47;;;31.64;50.39
4745;BME280;2386;42.138;24.746;2023-07-31T11:43:33;98963.69;;;31.65;49.47
4745;BME280;2386;42.138;24.746;2023-07-31T11:46:00;98959.00;;;31.73;49.84
4745;BME280;2386;42.138;24.746;2023-07-31T11:48:31;98957.03;;;31.80;48.44
4745;BME280;2386;42.138;24.746;2023-07-31T11:51:05;98946.72;;;31.98;48.62
4745;BME280;2386;42.138;24.746;2023-07-31T11:53:44;98948.84;;;32.12;47.62
4745;BME280;2386;42.138;24.746;2023-07-31T11:56:19;98942.19;;;32.34;48.69
4745;BME280;2386;42.138;24.746;2023-07-31T11:58:57;98938.25;;;32.53;47.39
4745;BME280;2386;42.138;24.746;2023-07-31T12:01:23;98935.50;;;32.75;45.32
4745;BME280;2386;42.138;24.746;2023-07-31T12:03:50;98941.94;;;32.68;44.18
4745;BME280;2386;42.138;24.746;2023-07-31T12:06:16;98943.53;;;32.73;44.23
4745;BME280;2386;42.138;24.746;2023-07-31T12:08:42;98945.25;;;33.02;43.02
4745;BME280;2386;42.138;24.746;2023-07-31T12:11:08;98931.69;;;33.75;43.71
4745;BME280;2386;42.138;24.746;2023-07-31T12:13:38;98928.09;;;35.64;39.06
4745;BME280;2386;42.138;24.746;2023-07-31T12:16:04;98935.28;;;37.89;35.88
4745;BME280;2386;42.138;24.746;2023-07-31T12:18:35;98938.44;;;39.82;32.92
4745;BME280;2386;42.138;24.746;2023-07-31T12:21:02;98940.09;;;41.49;30.99
4745;BME280;2386;42.138;24.746;2023-07-31T12:23:34;98933.75;;;42.83;28.31
4745;BME280;2386;42.138;24.746;2023-07-31T12:26:13;98938.59;;;43.94;26.31
4745;BME280;2386;42.138;24.746;2023-07-31T12:28:45;98936.03;;;44.97;24.69
4745;BME280;2386;42.138;24.746;2023-07-31T12:31:21;98930.47;;;45.35;23.50
4745;BME280;2386;42.138;24.746;2023-07-31T12:33:49;98931.41;;;45.74;23.53
4745;BME280;2386;42.138;24.746;2023-07-31T12:36:20;98929.81;;;46.21;23.40
4745;BME280;2386;42.138;24.746;2023-07-31T12:38:46;98929.16;;;46.79;21.36
4745;BME280;2386;42.138;24.746;2023-07-31T12:41:11;98917.00;;;47.05;20.21
4745;BME280;2386;42.138;24.746;2023-07-31T12:43:38;98922.56;;;47.23;20.15
4745;BME280;2386;42.138;24.746;2023-07-31T12:46:04;98923.78;;;46.72;19.94
4745;BME280;2386;42.138;24.746;2023-07-31T12:48:30;98927.31;;;46.67;19.54
4745;BME280;2386;42.138;24.746;2023-07-31T12:50:55;98927.22;;;46.62;20.74
4745;BME280;2386;42.138;24.746;2023-07-31T12:53:20;98922.19;;;46.86;20.29
4745;BME280;2386;42.138;24.746;2023-07-31T12:55:46;98928.06;;;47.41;19.25
4745;BME280;2386;42.138;24.746;2023-07-31T12:58:11;98921.44;;;47.35;20.18
4745;BME280;2386;42.138;24.746;2023-07-31T13:00:37;98923.72;;;47.66;19.05
4745;BME280;2386;42.138;24.746;2023-07-31T13:03:03;98925.19;;;46.77;19.20
4745;BME280;2386;42.138;24.746;2023-07-31T13:05:28;98921.34;;;45.13;21.68
4745;BME280;2386;42.138;24.746;2023-07-31T13:07:54;98902.13;;;43.00;24.13
4745;BME280;2386;42.138;24.746;2023-07-31T13:10:23;98885.41;;;41.54;26.84
4745;BME280;2386;42.138;24.746;2023-07-31T13:12:49;98897.75;;;40.30;27.78
4745;BME280;2386;42.138;24.746;2023-07-31T13:15:14;98887.34;;;39.17;30.17
4745;BME280;2386;42.138;24.746;2023-07-31T13:17:40;98896.44;;;38.32;33.30